sensor_id;sensor_type;location;lat;lon;timestamp;pressure;altitude;pressure_sealevel;temperature;humidity
31092;BME280;67728;53.122;12.776;2024-03-08T00:00:10;101786.16;;;-2.05;83.12
31092;BME280;67728;53.122;12.776;2024-03-08T00:01:42;101795.00;;;-2.09;83.16
31092;BME280;67728;53.122;12.776;2024-03-08T00:03:15;101794.13;;;-2.10;83.02
31092;BME280;67728;53.122;12.776;2024-03-08T00:04:47;101790.69;;;-2.12;83.16
31092;BME280;67728;53.122;12.776;2024-03-08T00:06:17;101788.09;;;-2.15;83.15
31092;BME280;67728;53.122;12.776;2024-03-08T00:07:49;101791.63;;;-2.17;83.19
31092;BME280;67728;53.122;12.776;2024-03-08T00:09:19;101793.41;;;-2.18;82.97
31092;BME280;67728;53.122;12.776;2024-03-08T00:10:53;101790.84;;;-2.24;82.67
31092;BME280;67728;53.122;12.776;2024-03-08T00:12:24;101795.25;;;-2.26;82.98
31092;BME280;67728;53.122;12.776;2024-03-08T00:13:56;101800.50;;;-2.26;82.92
31092;BME280;67728;53.122;12.776;2024-03-08T00:15:27;101799.69;;;-2.31;83.22
31092;BME280;67728;53.122;12.776;2024-03-08T00:16:59;101795.34;;;-2.33;83.52
31092;BME280;67728;53.122;12.776;2024-03-08T00:18:31;101796.25;;;-2.34;83.43
31092;BME280;67728;53.122;12.776;2024-03-08T00:20:03;101792.78;;;-2.35;83.87
31092;BME280;67728;53.122;12.776;2024-03-08T00:21:38;101794.50;;;-2.34;83.85
31092;BME280;67728;53.122;12.776;2024-03-08T00:23:09;101787.53;;;-2.35;83.70
31092;BME280;67728;53.122;12.776;2024-03-08T00:24:41;101794.50;;;-2.34;83.81
31092;BME280;67728;53.122;12.776;2024-03-08T00:26:13;101799.78;;;-2.35;83.70
31092;BME280;67728;53.122;12.776;2024-03-08T00:27:44;101790.16;;;-2.35;83.57
31092;BME280;67728;53.122;12.776;2024-03-08T00:29:15;101791.91;;;-2.35;83.74
31092;BME280;67728;53.122;12.776;2024-03-08T00:30:47;101792.78;;;-2.35;83.90
31092;BME280;67728;53.122;12.776;2024-03-08T00:32:18;101788.38;;;-2.34;83.42
31092;BME280;67728;53.122;12.776;2024-03-08T00:33:49;101789.28;;;-2.37;83.44
31092;BME280;67728;53.122;12.776;2024-03-08T00:35:20;101780.53;;;-2.36;83.60
31092;BME280;67728;53.122;12.776;2024-03-08T00:36:53;101784.06;;;-2.38;83.08
31092;BME280;67728;53.122;12.776;2024-03-08T00:38:23;101785.84;;;-2.40;82.93
31092;BME280;67728;53.122;12.776;2024-03-08T00:39:55;101789.34;;;-2.40;83.08
31092;BME280;67728;53.122;12.776;2024-03-08T00:41:27;101782.38;;;-2.42;83.16
31092;BME280;67728;53.122;12.776;2024-03-08T00:42:59;101785.00;;;-2.44;82.58
31092;BME280;67728;53.122;12.776;2024-03-08T00:44:30;101785.94;;;-2.46;82.56
31092;BME280;67728;53.122;12.776;2024-03-08T00:46:02;101786.84;;;-2.49;82.23
31092;BME280;67728;53.122;12.776;2024-03-08T00:47:32;101779.91;;;-2.55;82.15
31092;BME280;67728;53.122;12.776;2024-03-08T00:49:04;101782.59;;;-2.59;82.53
31092;BME280;67728;53.122;12.776;2024-03-08T00:50:37;101785.28;;;-2.64;82.96
31092;BME280;67728;53.122;12.776;2024-03-08T00:52:07;101779.19;;;-2.66;83.23
31092;BME280;67728;53.122;12.776;2024-03-08T00:53:39;101773.94;;;-2.66;83.65
31092;BME280;67728;53.122;12.776;2024-03-08T00:55:10;101783.56;;;-2.66;83.43
31092;BME280;67728;53.122;12.776;2024-03-08T00:56:43;101780.97;;;-2.68;83.82
31092;BME280;67728;53.122;12.776;2024-03-08T00:58:16;101783.56;;;-2.66;83.71
31092;BME280;67728;53.122;12.776;2024-03-08T00:59:47;101783.56;;;-2.66;83.68
31092;BME280;67728;53.122;12.776;2024-03-08T01:01:18;101775.69;;;-2.65;83.78
31092;BME280;67728;53.122;12.776;2024-03-08T01:02:50;101773.94;;;-2.67;83.18
31092;BME280;67728;53.122;12.776;2024-03-08T01:04:21;101780.06;;;-2.67;83.69
31092;BME280;67728;53.122;12.776;2024-03-08T01:05:53;101779.19;;;-2.67;83.70
31092;BME280;67728;53.122;12.776;2024-03-08T01:07:24;101782.69;;;-2.67;83.18
31092;BME280;67728;53.122;12.776;2024-03-08T01:08:56;101788.00;;;-2.71;82.89
31092;BME280;67728;53.122;12.776;2024-03-08T01:10:26;101780.22;;;-2.77;82.61
31092;BME280;67728;53.122;12.776;2024-03-08T01:11:59;101775.03;;;-2.82;83.85
31092;BME280;67728;53.122;12.776;2024-03-08T01:13:31;101774.09;;;-2.76;85.32
31092;BME280;67728;53.122;12.776;2024-03-08T01:15:03;101767.97;;;-2.77;84.72
31092;BME280;67728;53.122;12.776;2024-03-08T01:16:34;101774.94;;;-2.74;84.82
31092;BME280;67728;53.122;12.776;2024-03-08T01:18:06;101769.69;;;-2.74;83.89
31092;BME280;67728;53.122;12.776;2024-03-08T01:19:37;101766.22;;;-2.75;83.56
31092;BME280;67728;53.122;12.776;2024-03-08T01:21:08;101764.47;;;-2.79;83.42
31092;BME280;67728;53.122;12.776;2024-03-08T01:22:40;101760.22;;;-2.86;82.34
31092;BME280;67728;53.122;12.776;2024-03-08T01:24:12;101763.75;;;-2.88;83.12
31092;BME280;67728;53.122;12.776;2024-03-08T01:25:43;101755.94;;;-2.92;83.22
31092;BME280;67728;53.122;12.776;2024-03-08T01:27:16;101752.44;;;-2.92;83.77
31092;BME280;67728;53.122;12.776;2024-03-08T01:28:47;101752.44;;;-2.94;83.59
31092;BME280;67728;53.122;12.776;2024-03-08T01:30:18;101752.44;;;-2.94;83.39
31092;BME280;67728;53.122;12.776;2024-03-08T01:31:49;101750.66;;;-2.90;84.16
31092;BME280;67728;53.122;12.776;2024-03-08T01:33:23;101744.50;;;-2.87;83.91
31092;BME280;67728;53.122;12.776;2024-03-08T01:34:55;101754.13;;;-2.86;84.06
31092;BME280;67728;53.122;12.776;2024-03-08T01:36:27;101748.00;;;-2.87;83.81
31092;BME280;67728;53.122;12.776;2024-03-08T01:37:58;101747.13;;;-2.87;83.28
31092;BME280;67728;53.122;12.776;2024-03-08T01:39:29;101745.38;;;-2.88;83.36
31092;BME280;67728;53.122;12.776;2024-03-08T01:41:00;101748.03;;;-2.90;82.24
31092;BME280;67728;53.122;12.776;2024-03-08T01:42:33;101746.31;;;-2.93;81.98
31092;BME280;67728;53.122;12.776;2024-03-08T01:44:04;101744.59;;;-2.95;82.38
31092;BME280;67728;53.122;12.776;2024-03-08T01:45:37;101738.53;;;-2.99;82.16
31092;BME280;67728;53.122;12.776;2024-03-08T01:47:08;101747.38;;;-3.07;81.83
31092;BME280;67728;53.122;12.776;2024-03-08T01:48:39;101735.19;;;-3.10;82.29
31092;BME280;67728;53.122;12.776;2024-03-08T01:50:11;101740.41;;;-3.08;83.04
31092;BME280;67728;53.122;12.776;2024-03-08T01:51:43;101734.31;;;-3.12;82.86
31092;BME280;67728;53.122;12.776;2024-03-08T01:53:14;101738.75;;;-3.15;83.37
31092;BME280;67728;53.122;12.776;2024-03-08T01:54:46;101730.88;;;-3.17;83.25
31092;BME280;67728;53.122;12.776;2024-03-08T01:56:17;101736.09;;;-3.14;83.89
31092;BME280;67728;53.122;12.776;2024-03-08T01:57:51;101736.06;;;-3.12;83.72
31092;BME280;67728;53.122;12.776;2024-03-08T01:59:22;101732.56;;;-3.10;83.72
31092;BME280;67728;53.122;12.776;2024-03-08T02:00:54;101732.56;;;-3.11;83.33
31092;BME280;67728;53.122;12.776;2024-03-08T02:02:25;101733.50;;;-3.17;83.02
31092;BME280;67728;53.122;12.776;2024-03-08T02:03:57;101732.63;;;-3.16;83.14
31092;BME280;67728;53.122;12.776;2024-03-08T02:05:28;101730.00;;;-3.16;83.24
31092;BME280;67728;53.122;12.776;2024-03-08T02:06:59;101728.19;;;-3.12;83.43
31092;BME280;67728;53.122;12.776;2024-03-08T02:08:30;101731.69;;;-3.12;83.42
31092;BME280;67728;53.122;12.776;2024-03-08T02:10:02;101726.44;;;-3.10;83.19
31092;BME280;67728;53.122;12.776;2024-03-08T02:11:33;101726.50;;;-3.15;82.70
31092;BME280;67728;53.122;12.776;2024-03-08T02:13:07;101726.53;;;-3.18;82.86
31092;BME280;67728;53.122;12.776;2024-03-08T02:14:38;101720.41;;;-3.17;83.20
31092;BME280;67728;53.122;12.776;2024-03-08T02:16:11;101717.78;;;-3.17;83.28
31092;BME280;67728;53.122;12.776;2024-03-08T02:17:42;101722.16;;;-3.17;83.45
31092;BME280;67728;53.122;12.776;2024-03-08T02:19:13;101722.16;;;-3.17;83.42
31092;BME280;67728;53.122;12.776;2024-03-08T02:20:45;101723.91;;;-3.18;83.68
31092;BME280;67728;53.122;12.776;2024-03-08T02:22:17;101719.53;;;-3.19;83.29
31092;BME280;67728;53.122;12.776;2024-03-08T02:23:48;101716.09;;;-3.19;83.23
31092;BME280;67728;53.122;12.776;2024-03-08T02:25:22;101715.22;;;-3.20;83.76
31092;BME280;67728;53.122;12.776;2024-03-08T02:26:53;101712.53;;;-3.18;83.73
31092;BME280;67728;53.122;12.776;2024-03-08T02:28:25;101717.78;;;-3.18;83.51
31092;BME280;67728;53.122;12.776;2024-03-08T02:29:56;101709.09;;;-3.20;83.39
31092;BME280;67728;53.122;12.776;2024-03-08T02:31:28;101710.84;;;-3.21;83.38
31092;BME280;67728;53.122;12.776;2024-03-08T02:32:59;101701.25;;;-3.23;83.01
31092;BME280;67728;53.122;12.776;2024-03-08T02:34:31;101707.38;;;-3.24;82.91
31092;BME280;67728;53.122;12.776;2024-03-08T02:36:04;101704.81;;;-3.29;82.98
31092;BME280;67728;53.122;12.776;2024-03-08T02:37:36;101700.47;;;-3.30;83.04
31092;BME280;67728;53.122;12.776;2024-03-08T02:39:08;101707.44;;;-3.29;83.45
31092;BME280;67728;53.122;12.776;2024-03-08T02:40:40;101703.94;;;-3.29;83.33
31092;BME280;67728;53.122;12.776;2024-03-08T02:42:11;101701.38;;;-3.31;82.94
31092;BME280;67728;53.122;12.776;2024-03-08T02:43:43;101702.25;;;-3.35;83.23
31092;BME280;67728;53.122;12.776;2024-03-08T02:45:15;101697.00;;;-3.34;83.48
31092;BME280;67728;53.122;12.776;2024-03-08T02:46:47;101697.00;;;-3.32;83.44
31092;BME280;67728;53.122;12.776;2024-03-08T02:48:18;101692.66;;;-3.33;83.66
31092;BME280;67728;53.122;12.776;2024-03-08T02:49:50;101697.00;;;-3.34;83.08
31092;BME280;67728;53.122;12.776;2024-03-08T02:51:22;101688.28;;;-3.34;83.02
31092;BME280;67728;53.122;12.776;2024-03-08T02:52:56;101692.69;;;-3.36;83.05
31092;BME280;67728;53.122;12.776;2024-03-08T02:54:27;101687.47;;;-3.41;82.94
31092;BME280;67728;53.122;12.776;2024-03-08T02:55:58;101691.03;;;-3.43;83.62
31092;BME280;67728;53.122;12.776;2024-03-08T02:57:29;101687.53;;;-3.44;83.53
31092;BME280;67728;53.122;12.776;2024-03-08T02:59:01;101688.41;;;-3.46;83.43
31092;BME280;67728;53.122;12.776;2024-03-08T03:00:31;101684.91;;;-3.45;84.06
31092;BME280;67728;53.122;12.776;2024-03-08T03:02:04;101687.53;;;-3.45;83.99
31092;BME280;67728;53.122;12.776;2024-03-08T03:03:35;101679.69;;;-3.47;83.85
31092;BME280;67728;53.122;12.776;2024-03-08T03:05:07;101677.13;;;-3.48;83.93
31092;BME280;67728;53.122;12.776;2024-03-08T03:06:41;101680.63;;;-3.49;84.03
31092;BME280;67728;53.122;12.776;2024-03-08T03:08:12;101680.63;;;-3.51;84.06
31092;BME280;67728;53.122;12.776;2024-03-08T03:09:43;101678.88;;;-3.50;84.22
31092;BME280;67728;53.122;12.776;2024-03-08T03:11:15;101683.25;;;-3.52;83.68
31092;BME280;67728;53.122;12.776;2024-03-08T03:12:48;101685.91;;;-3.54;83.20
31092;BME280;67728;53.122;12.776;2024-03-08T03:14:20;101685.06;;;-3.57;83.64
31092;BME280;67728;53.122;12.776;2024-03-08T03:15:51;101682.44;;;-3.57;83.60
31092;BME280;67728;53.122;12.776;2024-03-08T03:17:23;101684.22;;;-3.61;83.48
31092;BME280;67728;53.122;12.776;2024-03-08T03:18:54;101680.75;;;-3.61;83.53
31092;BME280;67728;53.122;12.776;2024-03-08T03:20:27;101681.63;;;-3.64;84.36
31092;BME280;67728;53.122;12.776;2024-03-08T03:22:04;101681.63;;;-3.62;84.70
31092;BME280;67728;53.122;12.776;2024-03-08T03:23:36;101684.22;;;-3.61;84.28
31092;BME280;67728;53.122;12.776;2024-03-08T03:25:08;101678.13;;;-3.60;84.45
31092;BME280;67728;53.122;12.776;2024-03-08T03:26:40;101681.56;;;-3.58;84.53
31092;BME280;67728;53.122;12.776;2024-03-08T03:28:11;101679.00;;;-3.59;84.76
31092;BME280;67728;53.122;12.776;2024-03-08T03:29:44;101678.06;;;-3.58;84.68
31092;BME280;67728;53.122;12.776;2024-03-08T03:31:16;101678.06;;;-3.57;84.75
31092;BME280;67728;53.122;12.776;2024-03-08T03:32:49;101676.31;;;-3.56;84.42
31092;BME280;67728;53.122;12.776;2024-03-08T03:34:21;101675.44;;;-3.55;84.69
31092;BME280;67728;53.122;12.776;2024-03-08T03:35:53;101678.94;;;-3.56;84.16
31092;BME280;67728;53.122;12.776;2024-03-08T03:37:25;101684.22;;;-3.59;83.47
31092;BME280;67728;53.122;12.776;2024-03-08T03:38:56;101677.25;;;-3.63;83.18
31092;BME280;67728;53.122;12.776;2024-03-08T03:40:38;101679.06;;;-3.67;83.07
31092;BME280;67728;53.122;12.776;2024-03-08T03:42:10;101676.50;;;-3.73;82.73
31092;BME280;67728;53.122;12.776;2024-03-08T03:43:40;101679.13;;;-3.75;82.58
31092;BME280;67728;53.122;12.776;2024-03-08T03:45:12;101669.56;;;-3.77;83.35
31092;BME280;67728;53.122;12.776;2024-03-08T03:46:44;101678.31;;;-3.78;83.28
31092;BME280;67728;53.122;12.776;2024-03-08T03:48:16;101674.81;;;-3.80;83.63
31092;BME280;67728;53.122;12.776;2024-03-08T03:49:47;101680.94;;;-3.80;84.00
31092;BME280;67728;53.122;12.776;2024-03-08T03:51:18;101672.31;;;-3.88;84.18
31092;BME280;67728;53.122;12.776;2024-03-08T03:52:51;101667.06;;;-3.89;84.41
31092;BME280;67728;53.122;12.776;2024-03-08T03:54:23;101666.25;;;-3.96;83.95
31092;BME280;67728;53.122;12.776;2024-03-08T03:55:54;101675.88;;;-3.96;84.59
31092;BME280;67728;53.122;12.776;2024-03-08T03:57:25;101667.97;;;-3.92;84.95
31092;BME280;67728;53.122;12.776;2024-03-08T03:58:56;101671.44;;;-3.88;85.00
31092;BME280;67728;53.122;12.776;2024-03-08T04:00:28;101670.53;;;-3.87;84.82
31092;BME280;67728;53.122;12.776;2024-03-08T04:01:58;101667.91;;;-3.87;83.86
31092;BME280;67728;53.122;12.776;2024-03-08T04:03:30;101663.59;;;-3.88;84.10
31092;BME280;67728;53.122;12.776;2024-03-08T04:05:01;101669.69;;;-3.91;83.52
31092;BME280;67728;53.122;12.776;2024-03-08T04:06:32;101667.06;;;-3.89;83.66
31092;BME280;67728;53.122;12.776;2024-03-08T04:08:04;101663.59;;;-3.88;83.57
31092;BME280;67728;53.122;12.776;2024-03-08T04:09:36;101655.72;;;-3.88;83.97
31092;BME280;67728;53.122;12.776;2024-03-08T04:11:07;101660.97;;;-3.90;83.26
31092;BME280;67728;53.122;12.776;2024-03-08T04:12:39;101662.72;;;-3.90;83.19
31092;BME280;67728;53.122;12.776;2024-03-08T04:14:09;101664.47;;;-3.91;82.86
31092;BME280;67728;53.122;12.776;2024-03-08T04:15:41;101666.25;;;-3.94;83.29
31092;BME280;67728;53.122;12.776;2024-03-08T04:17:14;101660.16;;;-3.93;83.46
31092;BME280;67728;53.122;12.776;2024-03-08T04:18:45;101667.09;;;-3.92;83.17
31092;BME280;67728;53.122;12.776;2024-03-08T04:20:17;101660.16;;;-3.95;83.16
31092;BME280;67728;53.122;12.776;2024-03-08T04:21:48;101659.28;;;-3.98;82.67
31092;BME280;67728;53.122;12.776;2024-03-08T04:23:21;101661.97;;;-4.03;82.76
31092;BME280;67728;53.122;12.776;2024-03-08T04:24:52;101659.41;;;-4.07;82.77
31092;BME280;67728;53.122;12.776;2024-03-08T04:26:23;101653.28;;;-4.05;83.17
31092;BME280;67728;53.122;12.776;2024-03-08T04:27:54;101659.41;;;-4.07;82.80
31092;BME280;67728;53.122;12.776;2024-03-08T04:29:25;101660.25;;;-4.07;83.10
31092;BME280;67728;53.122;12.776;2024-03-08T04:30:57;101657.66;;;-4.07;82.98
31092;BME280;67728;53.122;12.776;2024-03-08T04:32:30;101663.72;;;-4.03;82.89
31092;BME280;67728;53.122;12.776;2024-03-08T04:34:02;101662.84;;;-4.02;83.48
31092;BME280;67728;53.122;12.776;2024-03-08T04:35:35;101670.69;;;-4.02;83.40
31092;BME280;67728;53.122;12.776;2024-03-08T04:37:06;101660.22;;;-4.04;83.10
31092;BME280;67728;53.122;12.776;2024-03-08T04:38:42;101659.34;;;-4.03;83.34
31092;BME280;67728;53.122;12.776;2024-03-08T04:40:14;101655.00;;;-4.04;83.28
31092;BME280;67728;53.122;12.776;2024-03-08T04:41:45;101661.97;;;-4.03;83.15
31092;BME280;67728;53.122;12.776;2024-03-08T04:43:17;101657.59;;;-4.01;82.94
31092;BME280;67728;53.122;12.776;2024-03-08T04:44:48;101657.59;;;-3.99;83.38
31092;BME280;67728;53.122;12.776;2024-03-08T04:46:20;101661.03;;;-3.97;83.21
31092;BME280;67728;53.122;12.776;2024-03-08T04:47:52;101654.06;;;-3.98;82.53
31092;BME280;67728;53.122;12.776;2024-03-08T04:49:22;101651.50;;;-4.01;82.26
31092;BME280;67728;53.122;12.776;2024-03-08T04:50:54;101656.72;;;-4.03;82.23
31092;BME280;67728;53.122;12.776;2024-03-08T04:52:26;101652.41;;;-4.05;81.80
31092;BME280;67728;53.122;12.776;2024-03-08T04:54:00;101657.66;;;-4.07;82.48
31092;BME280;67728;53.122;12.776;2024-03-08T04:55:30;101648.94;;;-4.07;82.58
31092;BME280;67728;53.122;12.776;2024-03-08T04:57:02;101652.41;;;-4.08;81.97
31092;BME280;67728;53.122;12.776;2024-03-08T04:58:35;101655.91;;;-4.08;82.88
31092;BME280;67728;53.122;12.776;2024-03-08T05:00:08;101652.41;;;-4.07;82.38
31092;BME280;67728;53.122;12.776;2024-03-08T05:01:41;101651.59;;;-4.10;81.28
31092;BME280;67728;53.122;12.776;2024-03-08T05:03:13;101647.28;;;-4.16;81.81
31092;BME280;67728;53.122;12.776;2024-03-08T05:04:44;101646.41;;;-4.17;82.39
31092;BME280;67728;53.122;12.776;2024-03-08T05:06:16;101641.13;;;-4.15;82.51
31092;BME280;67728;53.122;12.776;2024-03-08T05:07:46;101647.28;;;-4.16;83.13
31092;BME280;67728;53.122;12.776;2024-03-08T05:09:19;101647.25;;;-4.13;83.07
31092;BME280;67728;53.122;12.776;2024-03-08T05:10:50;101645.47;;;-4.11;83.06
31092;BME280;67728;53.122;12.776;2024-03-08T05:12:22;101649.81;;;-4.10;82.79
31092;BME280;67728;53.122;12.776;2024-03-08T05:13:52;101651.59;;;-4.10;82.38
31092;BME280;67728;53.122;12.776;2024-03-08T05:15:24;101644.63;;;-4.13;82.36
31092;BME280;67728;53.122;12.776;2024-03-08T05:16:54;101650.72;;;-4.16;82.00
31092;BME280;67728;53.122;12.776;2024-03-08T05:18:26;101650.78;;;-4.17;81.45
31092;BME280;67728;53.122;12.776;2024-03-08T05:19:58;101649.91;;;-4.19;81.71
31092;BME280;67728;53.122;12.776;2024-03-08T05:21:30;101649.03;;;-4.21;81.88
31092;BME280;67728;53.122;12.776;2024-03-08T05:23:01;101644.69;;;-4.21;81.82
31092;BME280;67728;53.122;12.776;2024-03-08T05:24:35;101643.81;;;-4.20;81.97
31092;BME280;67728;53.122;12.776;2024-03-08T05:26:06;101645.53;;;-4.19;82.04
31092;BME280;67728;53.122;12.776;2024-03-08T05:27:37;101647.28;;;-4.16;82.60
31092;BME280;67728;53.122;12.776;2024-03-08T05:29:08;101647.28;;;-4.16;81.84
31092;BME280;67728;53.122;12.776;2024-03-08T05:30:40;101642.06;;;-4.19;81.38
31092;BME280;67728;53.122;12.776;2024-03-08T05:32:11;101647.28;;;-4.19;81.73
31092;BME280;67728;53.122;12.776;2024-03-08T05:33:43;101639.44;;;-4.19;82.14
31092;BME280;67728;53.122;12.776;2024-03-08T05:35:13;101642.06;;;-4.19;82.45
31092;BME280;67728;53.122;12.776;2024-03-08T05:36:46;101653.41;;;-4.20;82.47
31092;BME280;67728;53.122;12.776;2024-03-08T05:38:17;101640.34;;;-4.22;82.38
31092;BME280;67728;53.122;12.776;2024-03-08T05:39:52;101649.09;;;-4.23;82.37
31092;BME280;67728;53.122;12.776;2024-03-08T05:41:22;101637.75;;;-4.23;82.59
31092;BME280;67728;53.122;12.776;2024-03-08T05:42:54;101638.56;;;-4.21;82.79
31092;BME280;67728;53.122;12.776;2024-03-08T05:44:24;101638.56;;;-4.18;83.64
31092;BME280;67728;53.122;12.776;2024-03-08T05:45:58;101641.13;;;-4.15;83.09
31092;BME280;67728;53.122;12.776;2024-03-08T05:47:29;101635.88;;;-4.12;83.24
31092;BME280;67728;53.122;12.776;2024-03-08T05:49:01;101638.47;;;-4.09;83.71
31092;BME280;67728;53.122;12.776;2024-03-08T05:50:35;101643.69;;;-4.06;82.85
31092;BME280;67728;53.122;12.776;2024-03-08T05:52:07;101640.19;;;-4.06;82.91
31092;BME280;67728;53.122;12.776;2024-03-08T05:53:37;101639.31;;;-4.07;82.47
31092;BME280;67728;53.122;12.776;2024-03-08T05:55:10;101635.84;;;-4.09;82.34
31092;BME280;67728;53.122;12.776;2024-03-08T05:56:44;101642.81;;;-4.09;82.56
31092;BME280;67728;53.122;12.776;2024-03-08T05:58:17;101635.84;;;-4.07;82.59
31092;BME280;67728;53.122;12.776;2024-03-08T05:59:48;101641.06;;;-4.06;82.34
31092;BME280;67728;53.122;12.776;2024-03-08T06:01:19;101637.56;;;-4.05;82.62
31092;BME280;67728;53.122;12.776;2024-03-08T06:02:52;101638.44;;;-4.04;82.95
31092;BME280;67728;53.122;12.776;2024-03-08T06:04:22;101636.78;;;-4.14;82.24
31092;BME280;67728;53.122;12.776;2024-03-08T06:05:54;101638.50;;;-4.12;82.30
31092;BME280;67728;53.122;12.776;2024-03-08T06:07:26;101641.13;;;-4.12;82.14
31092;BME280;67728;53.122;12.776;2024-03-08T06:08:58;101634.97;;;-4.09;82.68
31092;BME280;67728;53.122;12.776;2024-03-08T06:10:31;101637.59;;;-4.06;82.67
31092;BME280;67728;53.122;12.776;2024-03-08T06:12:03;101641.91;;;-4.02;83.38
31092;BME280;67728;53.122;12.776;2024-03-08T06:13:35;101637.53;;;-4.00;83.26
31092;BME280;67728;53.122;12.776;2024-03-08T06:15:06;101637.50;;;-3.99;83.01
31092;BME280;67728;53.122;12.776;2024-03-08T06:16:38;101646.22;;;-3.98;83.16
31092;BME280;67728;53.122;12.776;2024-03-08T06:18:10;101640.09;;;-3.96;83.37
31092;BME280;67728;53.122;12.776;2024-03-08T06:19:42;101641.81;;;-3.93;83.14
31092;BME280;67728;53.122;12.776;2024-03-08T06:21:13;101640.03;;;-3.91;82.86
31092;BME280;67728;53.122;12.776;2024-03-08T06:22:44;101647.88;;;-3.90;83.32
31092;BME280;67728;53.122;12.776;2024-03-08T06:24:15;101635.66;;;-3.88;83.25
31092;BME280;67728;53.122;12.776;2024-03-08T06:25:47;101635.59;;;-3.85;82.97
31092;BME280;67728;53.122;12.776;2024-03-08T06:27:19;101646.06;;;-3.82;83.46
31092;BME280;67728;53.122;12.776;2024-03-08T06:28:50;101645.16;;;-3.79;82.86
31092;BME280;67728;53.122;12.776;2024-03-08T06:30:22;101634.66;;;-3.76;83.19
31092;BME280;67728;53.122;12.776;2024-03-08T06:31:53;101642.50;;;-3.76;83.00
31092;BME280;67728;53.122;12.776;2024-03-08T06:33:24;101638.97;;;-3.73;83.26
31092;BME280;67728;53.122;12.776;2024-03-08T06:34:56;101642.44;;;-3.71;83.18
31092;BME280;67728;53.122;12.776;2024-03-08T06:36:27;101641.59;;;-3.72;83.13
31092;BME280;67728;53.122;12.776;2024-03-08T06:37:58;101640.72;;;-3.72;83.53
31092;BME280;67728;53.122;12.776;2024-03-08T06:39:29;101645.03;;;-3.70;83.30
31092;BME280;67728;53.122;12.776;2024-03-08T06:41:03;101643.25;;;-3.66;83.34
31092;BME280;67728;53.122;12.776;2024-03-08T06:42:34;101641.47;;;-3.63;83.75
31092;BME280;67728;53.122;12.776;2024-03-08T06:44:06;101645.81;;;-3.60;83.98
31092;BME280;67728;53.122;12.776;2024-03-08T06:45:38;101645.75;;;-3.57;84.06
31092;BME280;67728;53.122;12.776;2024-03-08T06:47:09;101642.22;;;-3.52;83.84
31092;BME280;67728;53.122;12.776;2024-03-08T06:48:40;101645.63;;;-3.45;83.90
31092;BME280;67728;53.122;12.776;2024-03-08T06:50:12;101643.81;;;-3.40;84.13
31092;BME280;67728;53.122;12.776;2024-03-08T06:51:43;101640.28;;;-3.36;84.07
31092;BME280;67728;53.122;12.776;2024-03-08T06:53:14;101634.97;;;-3.31;84.17
31092;BME280;67728;53.122;12.776;2024-03-08T06:54:45;101641.06;;;-3.29;84.28
31092;BME280;67728;53.122;12.776;2024-03-08T06:56:18;101634.03;;;-3.26;84.69
31092;BME280;67728;53.122;12.776;2024-03-08T06:57:49;101636.59;;;-3.23;84.37
31092;BME280;67728;53.122;12.776;2024-03-08T06:59:21;101641.81;;;-3.20;84.83
31092;BME280;67728;53.122;12.776;2024-03-08T07:00:52;101634.78;;;-3.16;84.77
31092;BME280;67728;53.122;12.776;2024-03-08T07:02:24;101634.75;;;-3.15;85.16
31092;BME280;67728;53.122;12.776;2024-03-08T07:03:54;101635.56;;;-3.11;85.38
31092;BME280;67728;53.122;12.776;2024-03-08T07:05:27;101639.91;;;-3.09;85.76
31092;BME280;67728;53.122;12.776;2024-03-08T07:06:57;101630.25;;;-3.07;85.71
31092;BME280;67728;53.122;12.776;2024-03-08T07:08:29;101631.06;;;-3.02;85.51
31092;BME280;67728;53.122;12.776;2024-03-08T07:10:00;101627.53;;;-2.98;85.95
31092;BME280;67728;53.122;12.776;2024-03-08T07:11:33;101629.19;;;-2.92;85.96
31092;BME280;67728;53.122;12.776;2024-03-08T07:13:05;101623.88;;;-2.87;85.81
31092;BME280;67728;53.122;12.776;2024-03-08T07:14:37;101623.78;;;-2.81;85.81
31092;BME280;67728;53.122;12.776;2024-03-08T07:16:10;101623.69;;;-2.75;85.98
31092;BME280;67728;53.122;12.776;2024-03-08T07:17:42;101627.97;;;-2.68;86.25
31092;BME280;67728;53.122;12.776;2024-03-08T07:19:14;101622.63;;;-2.62;86.25
31092;BME280;67728;53.122;12.776;2024-03-08T07:20:47;101625.13;;;-2.56;86.28
31092;BME280;67728;53.122;12.776;2024-03-08T07:22:17;101627.66;;;-2.50;86.66
31092;BME280;67728;53.122;12.776;2024-03-08T07:23:49;101629.28;;;-2.43;86.88
31092;BME280;67728;53.122;12.776;2024-03-08T07:25:40;101624.78;;;-2.35;87.06
31092;BME280;67728;53.122;12.776;2024-03-08T07:27:13;101628.19;;;-2.28;86.80
31092;BME280;67728;53.122;12.776;2024-03-08T07:28:44;101628.03;;;-2.21;86.93
31092;BME280;67728;53.122;12.776;2024-03-08T07:30:15;101627.88;;;-2.12;87.05
31092;BME280;67728;53.122;12.776;2024-03-08T07:32:05;101625.06;;;-2.02;87.59
31092;BME280;67728;53.122;12.776;2024-03-08T07:33:48;101622.34;;;-1.96;87.46
31092;BME280;67728;53.122;12.776;2024-03-08T07:35:20;101623.09;;;-1.88;87.60
31092;BME280;67728;53.122;12.776;2024-03-08T07:36:52;101622.13;;;-1.86;87.67
31092;BME280;67728;53.122;12.776;2024-03-08T07:38:24;101624.66;;;-1.80;87.76
31092;BME280;67728;53.122;12.776;2024-03-08T07:39:54;101616.69;;;-1.75;87.85
31092;BME280;67728;53.122;12.776;2024-03-08T07:41:27;101616.56;;;-1.69;87.89
31092;BME280;67728;53.122;12.776;2024-03-08T07:43:00;101607.69;;;-1.63;87.88
31092;BME280;67728;53.122;12.776;2024-03-08T07:44:33;101609.41;;;-1.61;87.87
31092;BME280;67728;53.122;12.776;2024-03-08T07:46:04;101610.91;;;-1.49;88.61
31092;BME280;67728;53.122;12.776;2024-03-08T07:47:35;101609.94;;;-1.45;88.30
31092;BME280;67728;53.122;12.776;2024-03-08T07:49:06;101610.69;;;-1.39;88.70
31092;BME280;67728;53.122;12.776;2024-03-08T07:50:41;101607.94;;;-1.34;88.39
31092;BME280;67728;53.122;12.776;2024-03-08T07:52:12;101608.53;;;-1.20;88.69
31092;BME280;67728;53.122;12.776;2024-03-08T07:53:46;101601.56;;;-1.22;88.29